Terminal Aerodrome Forecast
Issued by NWS

Home | Current Version | Previous Version | Text Only | Print | Product List | Glossary On
Versions: 1 2 3 4 5 6 7 8 9 10 11 12 13 14 15 16 17 18 19 20 21 22 23 24 25 26 27 28 29 30 31 32
000
FTAK31 PANC 052320
TAFACD
TAF
PACD 052320Z 0600/0624 31012KT P6SM VCSH SCT025 BKN035
      TEMPO 0600/0603 -SHRA SCT015 BKN025
     FM060500 28008KT P6SM SCT035 BKN060
     FM061400 18014G22KT 4SM -RA SCT008 BKN015
     FM062000 18020G28KT 3SM -RA SCT004 BKN008=

USA.gov is the U.S. government's official web portal to all federal, state and local government web resources and services.